Time;durP1;ratioP1;P1;durP2;ratioP2;P2;SDS_P1;SDS_P2;PMS_P1;PMS_P2;Temp;Humidity;BMP_temperature;BMP_pressure;BME280_temperature;BME280_humidity;BME280_pressure;Samples;Min_cycle;Max_cycle;Signal;HPM_P1;HPM_P2
2022/07/17 00:01:29;;;;;;;;;;;;;;;22.60;41.56;102037.41;4917507;29;4570;-67
2022/07/17 00:03:56;;;;;;;;;;;;;;;22.60;41.58;102025.88;4909605;29;4197;-66
2022/07/17 00:06:23;;;;;;;;;;;;;;;22.62;41.44;102028.13;4915502;29;4268;-67
2022/07/17 00:08:50;;;;;;;;;;;;;;;22.62;41.60;102033.91;4917139;29;4566;-67
2022/07/17 00:11:16;;;;;;;;;;;;;;;22.57;42.01;102027.91;4916552;29;4277;-67
2022/07/17 00:13:44;;;;;;;;;;;;;;;22.58;41.77;102034.41;4917913;29;4196;-66
2022/07/17 00:16:11;;;;;;;;;;;;;;;22.57;42.03;102035.81;4917034;29;4412;-66
2022/07/17 00:18:37;;;;;;;;;;;;;;;22.57;41.89;102030.78;4919412;29;5769;-67
2022/07/17 00:21:04;;;;;;;;;;;;;;;22.56;41.69;102035.06;4919304;29;4162;-67
2022/07/17 00:23:31;;;;;;;;;;;;;;;22.56;41.90;102037.97;4920358;29;5572;-66
2022/07/17 00:25:57;;;;;;;;;;;;;;;22.55;41.99;102036.44;4916406;29;4331;-66
2022/07/17 00:28:25;;;;;;;;;;;;;;;22.54;41.91;102028.41;4920114;29;4304;-66
2022/07/17 00:30:52;;;;;;;;;;;;;;;22.54;41.91;102039.97;4917898;29;4234;-67
2022/07/17 00:33:18;;;;;;;;;;;;;;;22.52;41.78;102029.06;4916159;29;4524;-67
2022/07/17 00:35:45;;;;;;;;;;;;;;;22.51;41.69;102024.66;4916642;29;5128;-67
2022/07/17 00:38:13;;;;;;;;;;;;;;;22.52;42.01;102031.22;4915692;29;5401;-66
2022/07/17 00:40:40;;;;;;;;;;;;;;;22.51;41.65;102029.69;4917036;29;4304;-67
2022/07/17 00:43:06;;;;;;;;;;;;;;;22.50;41.57;102036.88;4919511;29;4504;-66
2022/07/17 00:45:33;;;;;;;;;;;;;;;22.48;41.66;102028.09;4915445;29;4345;-67
2022/07/17 00:48:00;;;;;;;;;;;;;;;22.48;41.58;102025.94;4915588;29;5304;-66
2022/07/17 00:50:28;;;;;;;;;;;;;;;22.49;41.71;102027.44;4916217;29;4450;-67
2022/07/17 00:52:55;;;;;;;;;;;;;;;22.48;41.44;102025.94;4918413;29;4934;-66
2022/07/17 00:55:21;;;;;;;;;;;;;;;22.47;41.59;102024.47;4914318;29;4202;-67
2022/07/17 00:58:08;;;;;;;;;;;;;;;22.46;41.75;102022.94;4915642;29;4436;-66
2022/07/17 01:00:34;;;;;;;;;;;;;;;22.45;41.74;102030.13;4918027;29;4184;-67
2022/07/17 01:03:01;;;;;;;;;;;;;;;22.44;41.52;102031.47;4919117;29;4420;-66
2022/07/17 01:05:27;;;;;;;;;;;;;;;22.43;41.76;102024.22;4915651;29;4354;-66
2022/07/17 01:07:53;;;;;;;;;;;;;;;22.43;41.57;102030.00;4910678;29;5253;-67
2022/07/17 01:10:20;;;;;;;;;;;;;;;22.43;41.71;102030.00;4919948;29;4414;-67
2022/07/17 01:12:46;;;;;;;;;;;;;;;22.43;41.67;102035.78;4922316;29;4228;-66
2022/07/17 01:15:13;;;;;;;;;;;;;;;22.43;41.49;102027.09;4908271;29;4230;-67
2022/07/17 01:17:39;;;;;;;;;;;;;;;22.40;41.91;102019.69;4920560;29;4238;-66
2022/07/17 01:20:06;;;;;;;;;;;;;;;22.39;41.83;102024.00;4914670;29;4205;-66
2022/07/17 01:22:32;;;;;;;;;;;;;;;22.40;41.90;102024.72;4909159;29;5451;-66
2022/07/17 01:24:59;;;;;;;;;;;;;;;22.38;41.60;102028.28;4901356;29;4254;-66
2022/07/17 01:27:25;;;;;;;;;;;;;;;22.39;41.67;102032.66;4913382;29;4305;-66
2022/07/17 01:29:52;;;;;;;;;;;;;;;22.38;41.50;102022.50;4916001;29;4268;-66
2022/07/17 01:32:19;;;;;;;;;;;;;;;22.39;41.58;102029.75;4918684;29;4295;-66
2022/07/17 01:34:46;;;;;;;;;;;;;;;22.38;41.64;102036.94;4911009;29;4321;-66
2022/07/17 01:37:13;;;;;;;;;;;;;;;22.37;41.49;102035.41;4911135;29;4196;-66
2022/07/17 01:39:54;;;;;;;;;;;;;;;22.36;41.49;102031.78;4913626;29;4217;-66
2022/07/17 01:42:21;;;;;;;;;;;;;;;22.36;41.67;102031.78;4912499;29;4413;-66
2022/07/17 01:44:48;;;;;;;;;;;;;;;22.34;41.77;102028.78;4908854;29;4272;-67
2022/07/17 01:47:17;;;;;;;;;;;;;;;22.34;41.43;102033.81;4901854;29;4278;-66
2022/07/17 01:49:44;;;;;;;;;;;;;;;22.34;41.39;102023.00;4895866;29;5568;-66
2022/07/17 01:52:10;;;;;;;;;;;;;;;22.35;41.60;102029.53;4909415;29;4210;-65
2022/07/17 01:54:37;;;;;;;;;;;;;;;22.32;41.32;102028.66;4919247;29;4120;-66
2022/07/17 01:57:03;;;;;;;;;;;;;;;22.32;41.27;102030.81;4910384;29;5485;-66
2022/07/17 01:59:29;;;;;;;;;;;;;;;22.33;41.43;102029.41;4910966;29;4147;-66
2022/07/17 02:01:56;;;;;;;;;;;;;;;22.34;41.12;102028.03;4911101;29;4238;-66
2022/07/17 02:04:22;;;;;;;;;;;;;;;22.30;41.24;102027.81;4919029;29;4108;-66
2022/07/17 02:06:49;;;;;;;;;;;;;;;22.32;41.11;102031.53;4921823;29;4292;-66
2022/07/17 02:09:15;;;;;;;;;;;;;;;22.31;41.24;102026.41;4919005;29;4166;-66
2022/07/17 02:11:42;;;;;;;;;;;;;;;22.30;41.53;102027.81;4910149;29;4259;-66
2022/07/17 02:14:15;;;;;;;;;;;;;;;22.28;41.20;102028.44;4908827;29;4169;-67
2022/07/17 02:16:41;;;;;;;;;;;;;;;22.27;41.16;102026.19;4909802;29;4293;-66
2022/07/17 02:19:08;;;;;;;;;;;;;;;22.26;41.32;102027.56;4917751;29;4530;-66
2022/07/17 02:21:34;;;;;;;;;;;;;;;22.25;41.25;102014.53;4915353;29;4165;-66
2022/07/17 02:24:00;;;;;;;;;;;;;;;22.24;41.19;102018.78;4916518;29;4304;-67
2022/07/17 02:26:27;;;;;;;;;;;;;;;22.24;41.35;102018.78;4916003;29;4249;-66
2022/07/17 02:28:54;;;;;;;;;;;;;;;22.25;41.37;102018.16;4911571;29;4482;-66
2022/07/17 02:31:21;;;;;;;;;;;;;;;22.21;41.40;102026.59;4915833;29;5350;-66
2022/07/17 02:33:48;;;;;;;;;;;;;;;22.23;41.61;102020.19;4915666;29;4227;-66
2022/07/17 02:36:14;;;;;;;;;;;;;;;22.21;41.24;102026.59;4917399;29;4271;-66
2022/07/17 02:38:41;;;;;;;;;;;;;;;22.21;41.39;102025.81;4921426;29;4158;-66
2022/07/17 02:41:08;;;;;;;;;;;;;;;22.19;41.61;102023.56;4916705;29;4275;-66
2022/07/17 02:43:34;;;;;;;;;;;;;;;22.17;41.57;102032.09;4921363;29;5276;-66
2022/07/17 02:46:01;;;;;;;;;;;;;;;22.20;41.47;102030.84;4914201;29;4560;-66
2022/07/17 02:48:27;;;;;;;;;;;;;;;22.18;41.70;102025.69;4912358;29;4179;-65
2022/07/17 02:50:54;;;;;;;;;;;;;;;22.17;41.50;102021.31;4916202;29;4186;-66
2022/07/17 02:53:20;;;;;;;;;;;;;;;22.17;41.66;102032.84;4917026;29;4143;-66
2022/07/17 02:55:48;;;;;;;;;;;;;;;22.15;41.75;102035.63;4916406;29;4262;-65
2022/07/17 02:58:15;;;;;;;;;;;;;;;22.15;41.68;102034.84;4918901;29;4284;-64
2022/07/17 03:00:41;;;;;;;;;;;;;;;22.16;41.71;102034.22;4916392;29;4272;-65
2022/07/17 03:03:07;;;;;;;;;;;;;;;22.14;41.80;102047.78;4910301;29;4266;-66
2022/07/17 03:05:34;;;;;;;;;;;;;;;22.15;42.10;102052.16;4919361;29;5388;-66
2022/07/17 03:08:00;;;;;;;;;;;;;;;22.14;41.99;102045.66;4919347;29;4201;-66
2022/07/17 03:10:27;;;;;;;;;;;;;;;22.14;41.86;102045.66;4915126;29;4175;-66
2022/07/17 03:12:53;;;;;;;;;;;;;;;22.14;41.62;102042.00;4915994;29;4325;-67
2022/07/17 03:15:21;;;;;;;;;;;;;;;22.13;42.00;102032.63;4916664;29;4256;-66
2022/07/17 03:17:48;;;;;;;;;;;;;;;22.15;41.76;102041.41;4901820;29;4202;-69
2022/07/17 03:20:14;;;;;;;;;;;;;;;22.14;41.74;102039.13;4914279;29;4105;-68
2022/07/17 03:22:41;;;;;;;;;;;;;;;22.12;41.81;102042.63;4912876;29;4101;-67
2022/07/17 03:25:07;;;;;;;;;;;;;;;22.11;41.93;102046.91;4919300;29;4213;-67
2022/07/17 03:27:34;;;;;;;;;;;;;;;22.12;42.14;102047.66;4915655;29;4263;-68
2022/07/17 03:30:00;;;;;;;;;;;;;;;22.13;41.75;102052.81;4907629;29;4549;-67
2022/07/17 03:32:27;;;;;;;;;;;;;;;22.11;42.13;102058.47;4920009;29;4252;-65
2022/07/17 03:34:53;;;;;;;;;;;;;;;22.04;41.91;102065.25;4918894;29;5129;-65
2022/07/17 03:37:22;;;;;;;;;;;;;;;22.00;41.52;102056.38;4896831;29;4084;-65
2022/07/17 03:39:49;;;;;;;;;;;;;;;21.92;41.71;102070.28;4905065;29;4340;-65
2022/07/17 03:42:15;;;;;;;;;;;;;;;21.89;41.54;102068.69;4916137;29;4235;-65
2022/07/17 03:44:42;;;;;;;;;;;;;;;21.82;41.71;102066.81;4919048;29;4269;-65
2022/07/17 03:47:08;;;;;;;;;;;;;;;21.79;41.61;102077.47;4919197;29;4290;-64
2022/07/17 03:49:34;;;;;;;;;;;;;;;21.79;41.55;102074.59;4915710;29;4105;-64
2022/07/17 03:52:01;;;;;;;;;;;;;;;21.82;41.43;102084.88;4916700;29;4350;-65
2022/07/17 03:54:27;;;;;;;;;;;;;;;21.80;41.39;102084.00;4918773;29;5239;-64
2022/07/17 03:56:54;;;;;;;;;;;;;;;21.77;41.57;102091.78;4913649;29;4395;-65
2022/07/17 03:59:20;;;;;;;;;;;;;;;21.74;41.56;102090.91;4918382;29;5562;-65
2022/07/17 04:01:47;;;;;;;;;;;;;;;21.71;41.68;102097.91;4913982;29;4256;-65
2022/07/17 04:04:14;;;;;;;;;;;;;;;21.70;41.61;102098.56;4917723;29;4242;-64
2022/07/17 04:06:40;;;;;;;;;;;;;;;21.67;41.75;102100.56;4918162;29;4081;-64
2022/07/17 04:09:06;;;;;;;;;;;;;;;21.70;41.42;102107.97;4917840;29;4247;-65
2022/07/17 04:11:33;;;;;;;;;;;;;;;21.69;41.71;102108.56;4913142;29;4203;-64
2022/07/17 04:13:59;;;;;;;;;;;;;;;21.65;41.84;102114.84;4911844;29;4090;-64
2022/07/17 04:16:26;;;;;;;;;;;;;;;21.63;41.91;102114.72;4909577;29;5298;-64
2022/07/17 04:18:53;;;;;;;;;;;;;;;21.64;41.79;102103.94;4917759;29;4322;-66
2022/07/17 04:21:19;;;;;;;;;;;;;;;21.61;41.92;102105.97;4914385;29;4263;-64
2022/07/17 04:23:46;;;;;;;;;;;;;;;21.60;41.98;102104.47;4912957;29;4098;-64
2022/07/17 04:26:12;;;;;;;;;;;;;;;21.58;41.98;102107.22;4914086;29;4367;-64
2022/07/17 04:28:39;;;;;;;;;;;;;;;21.59;42.08;102108.72;4916163;29;4083;-64
2022/07/17 04:31:05;;;;;;;;;;;;;;;21.61;42.09;102110.97;4919484;29;4132;-65
2022/07/17 04:33:32;;;;;;;;;;;;;;;21.61;42.15;102111.72;4918180;29;5375;-64
2022/07/17 04:35:58;;;;;;;;;;;;;;;21.58;42.25;102113.00;4913068;29;4210;-65
2022/07/17 04:38:24;;;;;;;;;;;;;;;21.54;42.12;102119.25;4921613;29;4326;-65
2022/07/17 04:40:51;;;;;;;;;;;;;;;21.57;42.28;102125.13;4919096;29;4248;-64
2022/07/17 04:43:17;;;;;;;;;;;;;;;21.57;42.31;102120.13;4920031;29;4214;-65
2022/07/17 04:45:44;;;;;;;;;;;;;;;21.55;42.26;102128.63;4919274;29;4409;-65
2022/07/17 04:48:10;;;;;;;;;;;;;;;21.54;42.40;102130.78;4917351;29;5332;-65
2022/07/17 04:50:36;;;;;;;;;;;;;;;21.53;42.47;102128.50;4916832;29;4289;-65
2022/07/17 04:53:03;;;;;;;;;;;;;;;21.53;42.60;102135.03;4922375;29;4222;-65
2022/07/17 04:55:29;;;;;;;;;;;;;;;21.54;42.37;102130.03;4923958;29;4270;-64
2022/07/17 04:57:56;;;;;;;;;;;;;;;21.54;42.40;102127.16;4919480;29;4240;-64
2022/07/17 05:00:22;;;;;;;;;;;;;;;21.55;42.66;102137.28;4919862;29;4416;-65
2022/07/17 05:02:48;;;;;;;;;;;;;;;21.51;42.83;102139.94;4916785;29;4604;-64
2022/07/17 05:05:15;;;;;;;;;;;;;;;21.51;42.92;102134.19;4921974;29;4402;-64
2022/07/17 05:07:41;;;;;;;;;;;;;;;21.45;42.86;102139.56;4919805;29;4111;-64
2022/07/17 05:10:08;;;;;;;;;;;;;;;21.50;42.81;102129.78;4916896;29;4229;-65
2022/07/17 05:12:35;;;;;;;;;;;;;;;21.52;42.73;102127.03;4920786;29;4417;-65
2022/07/17 05:15:01;;;;;;;;;;;;;;;21.52;43.04;102127.75;4911656;29;5336;-64
2022/07/17 05:17:28;;;;;;;;;;;;;;;21.50;43.08;102132.66;4916421;29;4088;-64
2022/07/17 05:19:54;;;;;;;;;;;;;;;21.49;43.12;102125.41;4918415;29;4424;-64
2022/07/17 05:22:21;;;;;;;;;;;;;;;21.50;43.10;102129.78;4914944;29;5359;-64
2022/07/17 05:24:47;;;;;;;;;;;;;;;21.50;43.28;102135.53;4917504;29;4160;-65
2022/07/17 05:27:13;;;;;;;;;;;;;;;21.48;43.41;102124.63;4919161;29;4185;-65
2022/07/17 05:29:40;;;;;;;;;;;;;;;21.48;43.44;102127.50;4917916;29;4086;-64
2022/07/17 05:32:06;;;;;;;;;;;;;;;21.46;43.34;102136.06;4918523;29;5549;-64
2022/07/17 05:34:33;;;;;;;;;;;;;;;21.45;43.63;102139.56;4909166;29;4311;-65
2022/07/17 05:36:59;;;;;;;;;;;;;;;21.45;43.65;102145.31;4922339;29;4169;-64
2022/07/17 05:39:25;;;;;;;;;;;;;;;21.47;43.58;102142.56;4923064;29;4622;-65
2022/07/17 05:41:52;;;;;;;;;;;;;;;21.46;43.71;102138.94;4921356;29;4222;-64
2022/07/17 05:44:18;;;;;;;;;;;;;;;21.43;43.66;102148.81;4918511;29;4178;-65
2022/07/17 05:46:44;;;;;;;;;;;;;;;21.43;43.83;102136.53;4921468;29;4197;-65
2022/07/17 05:49:11;;;;;;;;;;;;;;;21.42;44.02;102153.09;4919641;29;4120;-65
2022/07/17 05:51:37;;;;;;;;;;;;;;;21.41;43.94;102150.81;4922609;29;4251;-65
2022/07/17 05:54:04;;;;;;;;;;;;;;;21.41;44.09;102157.31;4919970;29;4241;-64
2022/07/17 05:56:30;;;;;;;;;;;;;;;21.43;43.85;102165.34;4919155;29;4302;-64
2022/07/17 05:58:56;;;;;;;;;;;;;;;21.43;44.12;102159.59;4920948;29;5441;-65
2022/07/17 06:01:23;;;;;;;;;;;;;;;21.45;43.96;102165.50;4920034;29;4174;-65
2022/07/17 06:03:49;;;;;;;;;;;;;;;21.48;44.04;102172.88;4919706;29;4362;-65
2022/07/17 06:06:16;;;;;;;;;;;;;;;21.49;44.19;102165.75;4917927;29;4477;-64
2022/07/17 06:08:42;;;;;;;;;;;;;;;21.51;44.09;102168.75;4919828;29;4447;-64
2022/07/17 06:11:08;;;;;;;;;;;;;;;21.52;44.05;102170.25;4920925;29;4235;-65
2022/07/17 06:13:35;;;;;;;;;;;;;;;21.50;44.39;102173.00;4916213;29;4195;-63
2022/07/17 06:16:01;;;;;;;;;;;;;;;21.58;44.24;102176.41;4912477;29;5774;-65
2022/07/17 06:18:28;;;;;;;;;;;;;;;21.59;44.02;102172.13;4913944;29;4262;-65
2022/07/17 06:20:54;;;;;;;;;;;;;;;21.54;43.93;102176.88;4920605;29;4345;-66
2022/07/17 06:23:21;;;;;;;;;;;;;;;21.47;43.88;102180.03;4922239;29;5312;-65
2022/07/17 06:25:47;;;;;;;;;;;;;;;21.45;44.02;102171.25;4917879;29;4935;-66
2022/07/17 06:28:14;;;;;;;;;;;;;;;21.47;44.04;102177.88;4922614;29;4269;-65
2022/07/17 06:30:40;;;;;;;;;;;;;;;21.50;44.17;102170.13;4918436;29;4271;-65
2022/07/17 06:33:06;;;;;;;;;;;;;;;21.49;44.13;102171.50;4919529;29;4384;-65
2022/07/17 06:35:34;;;;;;;;;;;;;;;21.47;44.25;102177.88;4920348;29;4273;-65
2022/07/17 06:38:01;;;;;;;;;;;;;;;21.50;43.96;102175.88;4920827;29;5432;-66
2022/07/17 06:40:27;;;;;;;;;;;;;;;21.50;43.90;102181.66;4922654;29;4272;-65
2022/07/17 06:42:54;;;;;;;;;;;;;;;21.47;43.19;102174.25;4909299;29;5346;-65
2022/07/17 06:45:20;;;;;;;;;;;;;;;21.36;43.64;102178.59;4918095;29;4187;-67
2022/07/17 06:47:47;;;;;;;;;;;;;;;21.36;43.84;102183.63;4912815;29;4209;-66
2022/07/17 06:50:13;;;;;;;;;;;;;;;21.44;43.77;102178.38;4919142;29;4253;-67
2022/07/17 06:52:39;;;;;;;;;;;;;;;21.49;43.67;102175.13;4921594;29;4137;-67
2022/07/17 06:55:12;;;;;;;;;;;;;;;21.51;43.78;102177.41;4918981;29;5486;-66
2022/07/17 06:57:38;;;;;;;;;;;;;;;21.52;43.84;102179.66;4916908;29;4243;-66
2022/07/17 07:00:05;;;;;;;;;;;;;;;21.52;43.65;102184.66;4911728;29;4289;-66
2022/07/17 07:02:31;;;;;;;;;;;;;;;21.53;43.63;102194.81;4917049;29;4098;-66
2022/07/17 07:04:58;;;;;;;;;;;;;;;21.53;43.62;102197.69;4915621;29;4276;-67
2022/07/17 07:07:24;;;;;;;;;;;;;;;21.51;43.67;102194.69;4918620;29;4143;-65
2022/07/17 07:09:50;;;;;;;;;;;;;;;21.40;44.16;102204.06;4891913;29;4216;-65
2022/07/17 07:12:17;;;;;;;;;;;;;;;21.40;44.09;102195.41;4912729;29;5569;-66
2022/07/17 07:14:43;;;;;;;;;;;;;;;21.40;44.11;102196.19;4918376;29;5354;-66
2022/07/17 07:17:10;;;;;;;;;;;;;;;21.46;44.26;102198.69;4908707;29;4461;-66
2022/07/17 07:19:36;;;;;;;;;;;;;;;21.48;44.31;102201.69;4916981;29;4331;-66
2022/07/17 07:22:03;;;;;;;;;;;;;;;21.48;44.24;102202.44;4917359;29;4240;-66
2022/07/17 07:24:29;;;;;;;;;;;;;;;21.44;44.49;102210.06;4915990;29;4216;-65
2022/07/17 07:26:55;;;;;;;;;;;;;;;21.44;44.53;102202.22;4911838;29;5157;-66
2022/07/17 07:29:22;;;;;;;;;;;;;;;21.46;44.44;102196.56;4913308;29;4288;-66
2022/07/17 07:31:48;;;;;;;;;;;;;;;21.41;44.68;102202.69;4913301;29;4667;-63
2022/07/17 07:34:14;;;;;;;;;;;;;;;21.42;44.22;102201.31;4917532;29;4264;-62
2022/07/17 07:36:41;;;;;;;;;;;;;;;21.56;44.16;102204.34;4914647;29;4339;-61
2022/07/17 07:39:08;;;;;;;;;;;;;;;21.50;44.39;102204.72;4916908;29;4185;-61
2022/07/17 07:41:34;;;;;;;;;;;;;;;21.41;44.35;102200.56;4917353;29;5354;-61
2022/07/17 07:44:02;;;;;;;;;;;;;;;21.48;44.07;102207.47;4919461;29;4264;-61
2022/07/17 07:46:28;;;;;;;;;;;;;;;21.48;43.95;102213.22;4922787;29;4222;-61
2022/07/17 07:48:55;;;;;;;;;;;;;;;21.46;43.97;102204.44;4920849;29;4258;-57
2022/07/17 07:51:21;;;;;;;;;;;;;;;21.45;44.01;102211.59;4920709;29;4247;-61
2022/07/17 07:54:07;;;;;;;;;;;;;;;21.44;43.92;102204.31;4906321;29;4255;-61
2022/07/17 07:56:34;;;;;;;;;;;;;;;21.47;43.89;102217.50;4918030;29;4290;-58
2022/07/17 07:59:01;;;;;;;;;;;;;;;21.51;43.65;102218.50;4919199;29;4230;-61
2022/07/17 08:01:28;;;;;;;;;;;;;;;21.52;43.50;102225.00;4919765;29;4244;-61
2022/07/17 08:03:55;;;;;;;;;;;;;;;21.51;43.62;102209.84;4918422;29;4220;-61
2022/07/17 08:06:21;;;;;;;;;;;;;;;21.52;43.75;102217.13;4919100;29;5390;-61
2022/07/17 08:08:48;;;;;;;;;;;;;;;21.54;43.73;102205.72;4919366;29;4201;-65
2022/07/17 08:11:15;;;;;;;;;;;;;;;21.56;43.52;102216.63;4914676;29;4031;-61
2022/07/17 08:13:42;;;;;;;;;;;;;;;21.55;43.71;102206.47;4916173;29;4248;-61
2022/07/17 08:16:08;;;;;;;;;;;;;;;21.53;43.58;102210.00;4915401;29;4178;-61
2022/07/17 08:18:35;;;;;;;;;;;;;;;21.58;43.72;102211.00;4919235;29;5329;-61
2022/07/17 08:21:01;;;;;;;;;;;;;;;21.58;43.79;102216.75;4918487;29;4372;-61
2022/07/17 08:23:27;;;;;;;;;;;;;;;21.53;43.57;102220.75;4919844;29;4259;-61
2022/07/17 08:25:54;;;;;;;;;;;;;;;21.58;43.61;102213.09;4917409;29;4217;-61
2022/07/17 08:28:20;;;;;;;;;;;;;;;21.62;43.56;102216.25;4912575;29;5352;-61
2022/07/17 08:30:47;;;;;;;;;;;;;;;21.62;43.46;102217.00;4911973;29;4849;-60
2022/07/17 08:33:15;;;;;;;;;;;;;;;21.62;43.53;102217.00;4912389;29;4243;-61
2022/07/17 08:35:41;;;;;;;;;;;;;;;21.61;43.42;102221.25;4909351;29;4403;-61
2022/07/17 08:38:07;;;;;;;;;;;;;;;21.63;43.28;102224.28;4908873;29;4249;-61
2022/07/17 08:40:34;;;;;;;;;;;;;;;21.61;43.09;102232.78;4910467;29;4277;-61
2022/07/17 08:43:02;;;;;;;;;;;;;;;21.62;43.02;102222.75;4907136;29;5461;-61
2022/07/17 08:45:28;;;;;;;;;;;;;;;21.60;43.08;102219.78;4910033;29;4328;-61
2022/07/17 08:47:55;;;;;;;;;;;;;;;21.60;42.94;102219.78;4909646;29;5186;-61
2022/07/17 08:50:25;;;;;;;;;;;;;;;21.59;43.19;102218.25;4910759;29;4313;-61
2022/07/17 08:52:52;;;;;;;;;;;;;;;21.60;43.15;102219.78;4910883;29;4239;-61
2022/07/17 08:55:18;;;;;;;;;;;;;;;21.62;42.92;102225.63;4907279;29;4192;-60
2022/07/17 08:57:45;;;;;;;;;;;;;;;21.64;43.12;102228.66;4912879;29;4624;-60
2022/07/17 09:00:16;;;;;;;;;;;;;;;21.66;43.25;102230.91;4912492;29;4475;-61
2022/07/17 09:03:02;;;;;;;;;;;;;;;21.64;43.02;102225.78;4911567;29;5549;-60
2022/07/17 09:05:35;;;;;;;;;;;;;;;21.68;43.23;102228.91;4903276;29;4667;-61
2022/07/17 09:08:01;;;;;;;;;;;;;;;21.67;43.20;102229.53;4913112;29;4407;-61
2022/07/17 09:10:37;;;;;;;;;;;;;;;21.66;43.28;102234.56;4916767;29;4235;-63
2022/07/17 09:13:16;;;;;;;;;;;;;;;21.67;43.17;102244.72;4915367;29;5247;-61
2022/07/17 09:15:43;;;;;;;;;;;;;;;21.67;43.29;102238.19;4918643;29;4246;-61
2022/07/17 09:18:11;;;;;;;;;;;;;;;21.69;43.35;102233.31;4914276;29;4323;-61
2022/07/17 09:20:38;;;;;;;;;;;;;;;21.71;43.19;102235.56;4917931;29;4090;-60
2022/07/17 09:23:04;;;;;;;;;;;;;;;21.67;43.16;102230.31;4903556;29;4093;-61
2022/07/17 09:25:40;;;;;;;;;;;;;;;21.70;43.09;102234.06;4921624;29;4170;-61
2022/07/17 09:28:07;;;;;;;;;;;;;;;21.70;43.35;102231.94;4919976;29;5461;-61
2022/07/17 09:30:34;;;;;;;;;;;;;;;21.67;43.42;102230.31;4922130;29;4255;-61
2022/07/17 09:33:01;;;;;;;;;;;;;;;21.66;43.33;102225.16;4917678;29;5345;-61
2022/07/17 09:35:27;;;;;;;;;;;;;;;21.69;42.69;102227.56;4918413;29;5348;-61
2022/07/17 09:37:54;;;;;;;;;;;;;;;21.65;42.96;102227.28;4916980;29;5574;-62
2022/07/17 09:43:12;;;;;;;;;;;;;;;21.64;43.08;102236.56;4911389;29;4252;-58
2022/07/17 09:45:39;;;;;;;;;;;;;;;21.70;42.95;102231.19;4915535;29;4220;-64
2022/07/17 09:48:06;;;;;;;;;;;;;;;21.65;43.19;102227.28;4906263;29;4196;-64
2022/07/17 09:50:32;;;;;;;;;;;;;;;21.66;43.18;102222.28;4893786;29;4315;-63
2022/07/17 09:52:59;;;;;;;;;;;;;;;21.67;43.14;102218.78;4915931;29;4239;-64
2022/07/17 09:55:27;;;;;;;;;;;;;;;21.67;43.22;102229.53;4913690;29;4294;-64
2022/07/17 09:58:13;;;;;;;;;;;;;;;21.70;43.24;102223.28;4914049;29;4237;-69
2022/07/17 10:00:39;;;;;;;;;;;;;;;21.66;43.58;102223.03;4921178;29;5351;-67
2022/07/17 10:03:06;;;;;;;;;;;;;;;21.66;43.62;102223.03;4905107;29;5210;-68
2022/07/17 10:05:33;;;;;;;;;;;;;;;21.67;43.96;102213.00;4898848;29;4209;-69
2022/07/17 10:08:00;;;;;;;;;;;;;;;21.68;43.90;102214.50;4903838;29;4228;-66
2022/07/17 10:10:26;;;;;;;;;;;;;;;21.68;43.58;102214.50;4912155;29;5349;-67
2022/07/17 10:12:53;;;;;;;;;;;;;;;21.72;43.73;102203.22;4915430;29;4379;-66
2022/07/17 10:15:22;;;;;;;;;;;;;;;21.73;43.44;102207.59;4916429;29;4104;-65
2022/07/17 10:17:49;;;;;;;;;;;;;;;21.74;43.56;102206.25;4915329;29;5472;-67
2022/07/17 10:20:23;;;;;;;;;;;;;;;21.75;43.70;102193.31;4914491;29;4262;-65
2022/07/17 10:22:51;;;;;;;;;;;;;;;21.74;43.79;102211.25;4915527;29;4962;-65
2022/07/17 10:25:17;;;;;;;;;;;;;;;21.71;44.40;102201.69;4919352;29;4212;-67
2022/07/17 10:27:53;;;;;;;;;;;;;;;21.73;44.07;102198.94;4908492;29;4310;-63
2022/07/17 10:30:23;;;;;;;;;;;;;;;21.70;44.36;102211.75;4905434;29;4312;-65
2022/07/17 10:32:50;;;;;;;;;;;;;;;21.69;44.36;102195.84;4909849;29;4107;-64
2022/07/17 10:35:17;;;;;;;;;;;;;;;21.73;44.38;102204.72;4910700;28;4245;-65
2022/07/17 10:37:49;;;;;;;;;;;;;;;21.74;44.32;102202.59;4917029;29;5582;-62
2022/07/17 10:40:33;;;;;;;;;;;;;;;21.74;44.37;102208.38;4916815;29;4325;-63
2022/07/17 10:43:00;;;;;;;;;;;;;;;21.75;44.11;102210.63;4894461;29;5421;-63
2022/07/17 10:45:34;;;;;;;;;;;;;;;21.75;44.21;102193.31;4912407;29;5271;-64
2022/07/17 10:48:04;;;;;;;;;;;;;;;21.74;44.21;102186.06;4917504;29;4340;-64
2022/07/17 10:50:40;;;;;;;;;;;;;;;21.74;43.92;102193.97;4915471;29;4330;-64
2022/07/17 10:53:09;;;;;;;;;;;;;;;21.77;43.99;102191.94;4914438;29;4260;-64
2022/07/17 10:55:37;;;;;;;;;;;;;;;21.74;43.97;102197.59;4915514;29;4101;-64
2022/07/17 10:58:13;;;;;;;;;;;;;;;21.75;44.28;102201.97;4915174;29;4201;-64
2022/07/17 11:00:39;;;;;;;;;;;;;;;21.75;44.04;102198.34;4921248;29;5317;-63
2022/07/17 11:03:10;;;;;;;;;;;;;;;21.75;44.13;102199.09;4919322;29;4198;-65
2022/07/17 11:05:37;;;;;;;;;;;;;;;21.77;44.18;102198.47;4914870;29;4304;-64
2022/07/17 11:08:08;;;;;;;;;;;;;;;21.75;44.02;102196.19;4915977;29;4325;-62
2022/07/17 11:10:35;;;;;;;;;;;;;;;21.79;43.50;102194.97;4910904;29;4278;-64
2022/07/17 11:13:08;;;;;;;;;;;;;;;21.74;43.28;102185.31;4915633;29;4457;-66
2022/07/17 11:15:38;;;;;;;;;;;;;;;21.75;43.28;102196.19;4907504;29;5425;-64
2022/07/17 11:18:09;;;;;;;;;;;;;;;21.75;43.31;102184.66;4906028;29;5308;-64
2022/07/17 11:20:45;;;;;;;;;;;;;;;21.78;43.37;102204.97;4921638;29;4294;-67
2022/07/17 11:23:12;;;;;;;;;;;;;;;21.79;43.29;102189.19;4912094;29;4204;-65
2022/07/17 11:25:39;;;;;;;;;;;;;;;21.78;43.32;102188.41;4899938;29;5326;-65
2022/07/17 11:28:05;;;;;;;;;;;;;;;21.79;43.20;102183.44;4911161;29;6461;-65
2022/07/17 11:30:32;;;;;;;;;;;;;;;21.80;42.87;102190.69;4892153;29;4325;-64
2022/07/17 11:33:01;;;;;;;;;;;;;;;21.80;42.92;102185.66;4904489;29;4278;-65
2022/07/17 11:35:27;;;;;;;;;;;;;;;21.82;42.83;102202.34;4916575;29;4284;-65
2022/07/17 11:38:07;;;;;;;;;;;;;;;21.82;42.85;102193.69;4911180;29;4203;-65
2022/07/17 11:40:33;;;;;;;;;;;;;;;21.82;42.72;102182.16;4914372;29;4287;-64
2022/07/17 11:43:00;;;;;;;;;;;;;;;21.84;42.73;102185.19;4908691;29;5307;-65
2022/07/17 11:45:27;;;;;;;;;;;;;;;21.85;42.63;102192.44;4915199;29;4292;-65
2022/07/17 11:47:59;;;;;;;;;;;;;;;21.86;42.71;102188.19;4897948;29;4187;-64
2022/07/17 11:50:26;;;;;;;;;;;;;;;21.88;42.90;102176.78;4911300;29;4254;-64
2022/07/17 11:52:53;;;;;;;;;;;;;;;21.90;42.85;102176.91;4913391;29;4127;-65
2022/07/17 11:55:19;;;;;;;;;;;;;;;21.89;42.92;102170.38;4912388;29;4186;-65
2022/07/17 11:57:49;;;;;;;;;;;;;;;21.89;43.04;102169.63;4892197;29;4086;-66
2022/07/17 12:00:16;;;;;;;;;;;;;;;21.89;42.97;102166.72;4914846;29;4235;-65
2022/07/17 12:02:44;;;;;;;;;;;;;;;21.92;42.85;102168.34;4915715;29;4185;-65
2022/07/17 12:05:10;;;;;;;;;;;;;;;21.92;43.06;102168.34;4910979;29;4204;-65
2022/07/17 12:07:40;;;;;;;;;;;;;;;21.94;43.05;102171.34;4914722;29;4270;-65
2022/07/17 12:10:13;;;;;;;;;;;;;;;21.95;43.23;102172.88;4916204;29;4196;-65
2022/07/17 12:12:39;;;;;;;;;;;;;;;21.95;43.01;102172.88;4913773;29;4259;-65
2022/07/17 12:15:06;;;;;;;;;;;;;;;21.94;43.18;102180.00;4900591;29;4193;-65
2022/07/17 12:17:39;;;;;;;;;;;;;;;21.95;43.16;102184.41;4910797;29;6458;-65
2022/07/17 12:20:05;;;;;;;;;;;;;;;21.96;43.32;102174.38;4914104;29;4558;-65
2022/07/17 12:22:48;;;;;;;;;;;;;;;21.96;43.25;102165.72;4912833;29;4296;-65
2022/07/17 12:25:23;;;;;;;;;;;;;;;21.96;43.21;102163.56;4916710;29;4319;-65
2022/07/17 12:27:50;;;;;;;;;;;;;;;21.97;43.23;102164.34;4913177;29;4119;-65
2022/07/17 12:30:16;;;;;;;;;;;;;;;21.98;43.07;102154.31;4907289;29;4204;-65
2022/07/17 12:32:43;;;;;;;;;;;;;;;21.99;43.23;102143.50;4910461;29;4276;-65
2022/07/17 12:35:10;;;;;;;;;;;;;;;22.00;43.27;102150.81;4914819;29;5382;-67
2022/07/17 12:37:36;;;;;;;;;;;;;;;22.01;43.18;102141.50;4916312;29;4336;-66
2022/07/17 12:40:03;;;;;;;;;;;;;;;22.01;43.42;102141.50;4908040;29;4322;-66
2022/07/17 12:42:30;;;;;;;;;;;;;;;22.03;43.21;102138.75;4907733;29;5350;-65
2022/07/17 12:44:56;;;;;;;;;;;;;;;22.03;43.28;102141.63;4908349;29;5328;-65
2022/07/17 12:47:22;;;;;;;;;;;;;;;22.03;43.27;102144.50;4908066;29;5294;-66
2022/07/17 12:49:49;;;;;;;;;;;;;;;22.04;43.21;102146.03;4905898;29;6218;-65
2022/07/17 12:52:16;;;;;;;;;;;;;;;22.04;42.94;102140.25;4908447;29;4204;-65